Time;durP1;ratioP1;P1;durP2;ratioP2;P2;SDS_P1;SDS_P2;PMS_P1;PMS_P2;Temp;Humidity;BMP_temperature;BMP_pressure;BME280_temperature;BME280_humidity;BME280_pressure;Samples;Min_cycle;Max_cycle;Signal;HPM_P1;HPM_P2
2022/11/03 00:02:05;;;;;;;4.07;1.70;;;10.20;99.90;;;;;;5086422;28;20174;-78
2022/11/03 00:04:31;;;;;;;2.83;1.15;;;10.20;99.90;;;;;;5090270;28;20044;-81
2022/11/03 00:06:56;;;;;;;3.55;1.15;;;10.30;99.90;;;;;;5084784;28;20515;-80
2022/11/03 00:09:25;;;;;;;7.22;1.02;;;10.20;99.90;;;;;;5091938;28;20487;-75
2022/11/03 00:11:51;;;;;;;3.58;1.23;;;10.00;99.90;;;;;;5076859;28;20041;-75
2022/11/03 00:14:18;;;;;;;6.68;1.15;;;10.00;99.90;;;;;;5071370;28;20033;-80
2022/11/03 00:16:44;;;;;;;5.60;1.30;;;10.10;99.90;;;;;;5071696;28;20071;-75
2022/11/03 00:19:12;;;;;;;3.28;1.23;;;10.20;99.90;;;;;;5084209;28;20054;-74
2022/11/03 00:21:38;;;;;;;3.22;1.10;;;10.40;99.90;;;;;;5092515;28;20070;-78
2022/11/03 00:24:04;;;;;;;2.85;1.08;;;10.60;99.90;;;;;;5092198;28;20044;-74
2022/11/03 00:26:32;;;;;;;6.55;2.22;;;10.60;99.90;;;;;;5094192;28;20044;-74
2022/11/03 00:29:00;;;;;;;1.55;0.88;;;10.60;99.90;;;;;;5083074;28;20050;-79
2022/11/03 00:31:31;;;;;;;2.20;1.10;;;10.60;99.90;;;;;;5085296;28;20516;-79
2022/11/03 00:33:58;;;;;;;3.92;1.10;;;10.50;99.90;;;;;;5076898;28;20035;-75
2022/11/03 00:36:33;;;;;;;7.35;1.77;;;10.40;99.90;;;;;;5076861;28;20024;-74
2022/11/03 00:38:59;;;;;;;4.93;1.08;;;10.20;99.90;;;;;;5076539;28;20056;-81
2022/11/03 00:41:25;;;;;;;3.38;1.42;;;10.00;99.90;;;;;;5074119;28;20384;-75
2022/11/03 00:43:52;;;;;;;3.58;1.40;;;10.00;99.90;;;;;;5065420;28;20044;-74
2022/11/03 00:46:20;;;;;;;3.08;1.33;;;10.00;99.90;;;;;;5090870;28;20032;-75
2022/11/03 00:48:46;;;;;;;5.40;1.38;;;9.90;99.90;;;;;;5094363;28;20036;-74
2022/11/03 00:51:21;;;;;;;2.80;1.35;;;9.80;99.90;;;;;;5054374;28;20044;-74
2022/11/03 00:53:50;;;;;;;3.40;1.63;;;9.60;99.90;;;;;;5064171;28;20040;-75
2022/11/03 00:56:23;;;;;;;4.50;1.70;;;9.60;99.90;;;;;;5071122;28;20040;-74
2022/11/03 00:58:50;;;;;;;5.13;1.88;;;9.80;99.90;;;;;;5073560;28;20197;-79
2022/11/03 01:01:17;;;;;;;6.70;1.58;;;9.90;99.90;;;;;;5063244;28;20047;-81
2022/11/03 01:06:51;;;;;;;4.65;1.92;;;10.00;99.90;;;;;;5091021;28;20131;-74
2022/11/03 01:09:17;;;;;;;4.70;1.58;;;9.90;99.90;;;;;;5095233;28;20400;-81
2022/11/03 01:12:03;;;;;;;8.25;1.85;;;10.10;99.90;;;;;;5096150;28;20197;-75
2022/11/03 01:14:36;;;;;;;10.48;1.83;;;10.40;99.90;;;;;;5094309;28;20032;-81
2022/11/03 01:17:08;;;;;;;4.45;1.70;;;10.50;99.90;;;;;;5078905;28;20047;-75
2022/11/03 01:19:34;;;;;;;5.65;1.80;;;10.40;99.90;;;;;;5074704;28;20056;-76
2022/11/03 01:22:00;;;;;;;3.67;1.55;;;10.30;99.90;;;;;;5076274;28;20025;-81
2022/11/03 01:24:25;;;;;;;3.47;1.58;;;10.20;99.90;;;;;;5086854;28;20089;-80
2022/11/03 01:26:51;;;;;;;4.28;1.52;;;10.10;99.90;;;;;;5096454;28;20582;-82
2022/11/03 01:29:17;;;;;;;4.45;1.73;;;10.10;99.90;;;;;;5084600;28;20040;-78
2022/11/03 01:31:43;;;;;;;3.15;1.52;;;10.00;99.90;;;;;;5074705;28;20041;-75
2022/11/03 01:34:14;;;;;;;4.90;1.80;;;10.00;99.90;;;;;;5075114;28;20800;-76
2022/11/03 01:36:40;;;;;;;6.97;2.22;;;9.90;99.90;;;;;;5075572;28;20484;-74
2022/11/03 01:39:08;;;;;;;5.35;1.90;;;9.80;99.90;;;;;;5075481;28;20052;-80
2022/11/03 01:41:33;;;;;;;3.53;1.90;;;9.70;99.90;;;;;;5075603;28;20119;-74
2022/11/03 01:44:08;;;;;;;4.25;1.90;;;9.50;99.90;;;;;;5075775;28;20071;-77
2022/11/03 01:46:37;;;;;;;4.07;1.85;;;9.30;99.90;;;;;;5055741;28;20036;-75
2022/11/03 01:49:05;;;;;;;8.32;2.95;;;9.30;99.90;;;;;;5068728;28;20124;-75
2022/11/03 01:51:34;;;;;;;8.82;1.90;;;9.30;99.90;;;;;;5075680;28;20033;-82
2022/11/03 01:54:06;;;;;;;4.03;2.05;;;9.40;99.90;;;;;;5087319;28;20105;-80
2022/11/03 01:56:34;;;;;;;6.28;1.75;;;9.50;99.90;;;;;;5094330;28;20563;-75
2022/11/03 01:59:02;;;;;;;10.02;2.40;;;9.50;99.90;;;;;;5082019;28;20052;-78
2022/11/03 02:01:28;;;;;;;5.15;2.20;;;9.50;99.90;;;;;;5087994;28;20114;-77
2022/11/03 02:04:07;;;;;;;4.43;2.03;;;9.50;99.90;;;;;;5093263;28;20048;-74
2022/11/03 02:06:35;;;;;;;5.55;2.00;;;9.60;99.90;;;;;;5080021;28;20037;-74
2022/11/03 02:09:06;;;;;;;5.15;2.22;;;9.70;99.90;;;;;;5075115;28;20040;-81
2022/11/03 02:14:17;;;;;;;8.93;2.00;;;10.00;99.90;;;;;;5074954;28;20063;-79
2022/11/03 02:16:48;;;;;;;4.00;1.85;;;10.00;99.90;;;;;;5091865;28;20075;-74
2022/11/03 02:19:38;;;;;;;8.95;2.20;;;10.00;99.90;;;;;;5094850;28;20427;-75
2022/11/03 02:22:12;;;;;;;3.40;1.60;;;10.00;99.90;;;;;;5094983;28;20454;-75
2022/11/03 02:24:55;;;;;;;5.22;1.73;;;9.90;99.90;;;;;;5094672;28;20040;-80
2022/11/03 02:27:21;;;;;;;8.02;2.15;;;9.60;99.90;;;;;;5093220;28;20039;-75
2022/11/03 02:29:47;;;;;;;3.85;2.03;;;9.50;99.90;;;;;;5075331;28;20029;-74
2022/11/03 02:32:23;;;;;;;5.70;2.08;;;9.40;99.90;;;;;;5075936;28;20036;-74
2022/11/03 02:34:56;;;;;;;3.72;1.75;;;9.40;99.90;;;;;;5089457;28;20444;-77
2022/11/03 02:37:30;;;;;;;7.03;2.28;;;9.40;99.90;;;;;;5073106;28;20075;-74
2022/11/03 02:40:05;;;;;;;4.43;1.70;;;9.20;99.90;;;;;;5084082;28;20377;-74
2022/11/03 02:42:31;;;;;;;8.32;1.90;;;9.30;99.90;;;;;;5094442;28;20046;-75
2022/11/03 02:45:01;;;;;;;5.38;2.22;;;9.20;99.90;;;;;;5094314;28;20043;-77
2022/11/03 02:47:29;;;;;;;7.30;2.15;;;9.20;99.90;;;;;;5094041;28;20066;-75
2022/11/03 02:49:55;;;;;;;4.80;2.05;;;9.30;99.90;;;;;;5063892;28;20041;-74
2022/11/03 02:52:45;;;;;;;4.60;1.30;;;9.30;99.90;;;;;;5074428;28;20067;-75
2022/11/03 02:55:34;;;;;;;3.40;1.50;;;8.90;99.90;;;;;;5079328;28;20459;-75
2022/11/03 02:58:03;;;;;;;4.75;2.00;;;8.80;99.90;;;;;;5082163;28;20382;-75
2022/11/03 03:00:32;;;;;;;4.45;2.03;;;8.80;99.90;;;;;;5074289;28;20107;-81
2022/11/03 03:03:10;;;;;;;4.88;1.42;;;8.80;99.90;;;;;;5076328;28;20039;-80
2022/11/03 03:05:41;;;;;;;4.50;2.00;;;8.90;99.90;;;;;;5079899;28;20036;-80
2022/11/03 03:08:10;;;;;;;5.70;1.77;;;8.90;99.90;;;;;;5082307;28;20041;-79
2022/11/03 03:10:40;;;;;;;2.95;1.65;;;8.90;99.90;;;;;;5075586;28;20526;-75
2022/11/03 03:13:09;;;;;;;3.28;1.50;;;8.90;99.90;;;;;;5083387;28;20067;-79
2022/11/03 03:15:46;;;;;;;4.38;1.77;;;9.00;99.90;;;;;;5089005;28;20121;-75
2022/11/03 03:18:19;;;;;;;3.97;1.92;;;9.00;99.90;;;;;;5080180;28;20051;-76
2022/11/03 03:20:50;;;;;;;4.85;1.63;;;8.90;99.90;;;;;;5082415;28;20033;-75
2022/11/03 03:23:20;;;;;;;6.20;1.52;;;8.90;99.90;;;;;;5073914;28;20479;-77
2022/11/03 03:25:54;;;;;;;6.85;1.48;;;8.80;99.90;;;;;;5074005;28;20028;-75
2022/11/03 03:28:33;;;;;;;6.97;2.20;;;8.80;99.90;;;;;;5076655;28;20070;-75
2022/11/03 03:31:03;;;;;;;3.78;1.52;;;8.90;99.90;;;;;;5093815;28;20036;-81
2022/11/03 03:33:30;;;;;;;3.67;1.58;;;9.10;99.90;;;;;;5092277;28;20032;-75
2022/11/03 03:35:58;;;;;;;3.75;1.48;;;9.10;99.90;;;;;;5073959;28;20067;-75
2022/11/03 03:38:31;;;;;;;5.18;1.92;;;9.10;99.90;;;;;;5081773;28;20040;-75
2022/11/03 03:40:59;;;;;;;5.85;1.75;;;9.10;99.90;;;;;;5053627;28;20089;-78
2022/11/03 03:43:27;;;;;;;4.65;2.08;;;9.10;99.90;;;;;;5061716;28;20032;-75
2022/11/03 03:45:58;;;;;;;5.80;2.33;;;9.10;99.90;;;;;;5077411;28;20048;-75
2022/11/03 03:48:24;;;;;;;;;;;9.00;99.90;;;;;;5094057;28;20042;-75
2022/11/03 03:50:50;;;;;;;5.15;2.33;;;9.00;99.90;;;;;;5093533;28;20414;-81
2022/11/03 03:53:18;;;;;;;8.63;2.47;;;9.00;99.90;;;;;;5093033;28;20101;-79
2022/11/03 03:55:50;;;;;;;5.32;1.95;;;9.10;99.90;;;;;;5094094;28;20051;-75
2022/11/03 03:58:17;;;;;;;2.75;1.77;;;9.10;99.90;;;;;;5085644;28;20441;-79
2022/11/03 04:00:43;;;;;;;3.75;1.95;;;9.00;99.90;;;;;;5076382;28;20142;-75
2022/11/03 04:03:23;;;;;;;3.25;1.77;;;8.90;99.90;;;;;;5078625;28;20071;-75
2022/11/03 04:05:49;;;;;;;5.50;2.50;;;9.00;99.90;;;;;;5077513;28;20514;-80
2022/11/03 04:08:16;;;;;;;4.10;1.73;;;9.00;99.90;;;;;;5086013;28;20073;-75
2022/11/03 04:24:38;;;;;;;4.47;1.77;;;8.20;99.90;;;;;;5077160;28;20039;-80
2022/11/03 04:27:29;;;;;;;3.88;2.15;;;8.10;99.90;;;;;;5077114;28;20131;-75
2022/11/03 04:30:15;;;;;;;3.70;2.05;;;8.00;99.90;;;;;;5093574;28;20112;-76
2022/11/03 04:32:42;;;;;;;4.68;1.95;;;8.00;99.90;;;;;;5087616;28;20048;-80
2022/11/03 04:35:18;;;;;;;3.25;1.80;;;7.90;99.90;;;;;;5077994;28;20458;-81
2022/11/03 04:37:47;;;;;;;8.10;1.88;;;7.70;99.90;;;;;;5079158;28;20032;-75
2022/11/03 04:40:16;;;;;;;3.45;1.85;;;7.40;99.90;;;;;;5093412;28;20467;-76
2022/11/03 04:42:43;;;;;;;5.53;1.65;;;7.40;99.90;;;;;;5076508;28;20447;-75
2022/11/03 04:45:30;;;;;;;5.22;1.50;;;7.40;99.90;;;;;;5079694;28;20028;-75
2022/11/03 04:47:59;;;;;;;4.57;1.63;;;7.40;99.90;;;;;;5096742;28;20032;-80
2022/11/03 04:50:25;;;;;;;8.43;2.10;;;7.60;99.90;;;;;;5096553;28;20073;-74
2022/11/03 04:52:55;;;;;;;2.03;1.50;;;7.60;99.90;;;;;;5096528;28;20061;-75
2022/11/03 04:55:21;;;;;;;6.47;1.70;;;7.70;99.90;;;;;;5096854;28;20565;-75
2022/11/03 04:57:49;;;;;;;2.63;1.23;;;7.80;99.90;;;;;;5087049;28;20492;-75
2022/11/03 05:00:16;;;;;;;1.60;1.13;;;7.90;99.90;;;;;;5076147;28;20048;-75
2022/11/03 05:02:47;;;;;;;4.22;1.50;;;8.10;99.90;;;;;;5076329;28;20060;-76
2022/11/03 05:05:16;;;;;;;2.33;1.20;;;8.20;99.90;;;;;;5092203;28;20051;-75
2022/11/03 05:07:42;;;;;;;2.63;1.23;;;8.20;99.90;;;;;;5096357;28;20057;-81
2022/11/03 05:10:14;;;;;;;1.50;0.90;;;8.30;99.90;;;;;;5090507;28;20080;-75
2022/11/03 05:12:40;;;;;;;3.83;0.98;;;8.40;99.90;;;;;;5094367;28;20040;-76
2022/11/03 05:15:25;;;;;;;2.30;1.08;;;8.50;99.90;;;;;;5096407;28;20040;-79
2022/11/03 05:17:51;;;;;;;0.88;0.70;;;8.60;99.90;;;;;;5091813;28;20044;-76
2022/11/03 05:20:25;;;;;;;2.75;1.00;;;8.80;99.90;;;;;;5076216;28;20047;-79
2022/11/03 05:22:51;;;;;;;2.75;1.20;;;8.80;99.90;;;;;;5076069;28;20047;-75
2022/11/03 05:25:48;;;;;;;2.85;1.30;;;8.60;99.90;;;;;;5075962;28;20422;-77
2022/11/03 05:28:30;;;;;;;3.28;1.17;;;8.50;99.90;;;;;;5073453;28;20064;-75
2022/11/03 05:30:56;;;;;;;3.20;1.50;;;8.40;99.90;;;;;;5093613;28;20070;-77
2022/11/03 05:33:26;;;;;;;6.95;1.55;;;8.40;99.90;;;;;;5094260;28;20117;-76
2022/11/03 05:35:52;;;;;;;4.63;1.40;;;8.40;99.90;;;;;;5085210;28;20047;-77
2022/11/03 05:38:20;;;;;;;2.83;1.60;;;8.40;99.90;;;;;;5089657;28;20047;-78
2022/11/03 05:40:50;;;;;;;5.00;1.95;;;8.40;99.90;;;;;;5087533;28;20040;-75
2022/11/03 05:43:17;;;;;;;3.00;1.50;;;8.20;99.90;;;;;;5075732;28;20068;-75
2022/11/03 05:45:47;;;;;;;3.20;1.20;;;8.10;99.90;;;;;;5080730;28;20043;-74
2022/11/03 05:48:44;;;;;;;2.70;1.23;;;8.20;99.90;;;;;;5080018;28;20581;-75
2022/11/03 05:51:20;;;;;;;2.85;1.20;;;8.40;99.90;;;;;;5071942;28;20365;-75
2022/11/03 05:53:52;;;;;;;3.95;1.40;;;8.40;99.90;;;;;;5089158;28;20038;-74
2022/11/03 05:56:21;;;;;;;1.17;0.90;;;7.70;99.90;;;;;;5095747;28;20040;-74
2022/11/03 05:58:49;;;;;;;3.53;1.20;;;7.60;99.90;;;;;;5094647;28;20098;-78
2022/11/03 06:01:22;;;;;;;2.10;0.90;;;7.80;99.90;;;;;;5095742;28;20070;-74
2022/11/03 06:03:48;;;;;;;3.80;1.23;;;7.80;99.90;;;;;;5095292;28;20499;-75
2022/11/03 06:06:36;;;;;;;2.45;1.13;;;8.10;99.90;;;;;;5095455;28;20054;-75
2022/11/03 06:09:12;;;;;;;2.95;1.23;;;7.90;99.90;;;;;;5095512;28;20086;-74
2022/11/03 06:11:39;;;;;;;2.75;1.00;;;7.60;99.90;;;;;;5095876;28;20058;-76
2022/11/03 06:14:19;;;;;;;2.20;1.00;;;7.60;99.90;;;;;;5095660;28;20051;-75
2022/11/03 06:16:55;;;;;;;2.42;0.95;;;7.90;99.90;;;;;;5095569;28;20059;-75
2022/11/03 06:19:33;;;;;;;3.35;1.15;;;8.30;99.90;;;;;;5095212;28;20047;-77
2022/11/03 06:22:11;;;;;;;3.17;1.30;;;8.50;99.90;;;;;;5094452;28;20530;-74
2022/11/03 06:24:37;;;;;;;3.30;1.20;;;8.70;99.90;;;;;;5094240;28;20047;-81
2022/11/03 06:27:02;;;;;;;2.53;1.15;;;8.70;99.90;;;;;;5094125;28;20036;-78
2022/11/03 06:29:31;;;;;;;5.47;1.02;;;8.70;99.90;;;;;;5095161;28;20061;-74
2022/11/03 06:31:57;;;;;;;5.93;1.65;;;8.90;99.90;;;;;;5094458;28;20044;-74
2022/11/03 06:34:33;;;;;;;3.22;1.35;;;8.80;99.90;;;;;;5094481;28;20085;-80
2022/11/03 06:37:09;;;;;;;2.22;0.98;;;8.90;99.90;;;;;;5094036;28;20126;-74
2022/11/03 06:39:35;;;;;;;6.05;1.33;;;8.80;99.90;;;;;;5094506;28;20044;-78
2022/11/03 06:42:12;;;;;;;2.33;1.27;;;8.90;99.90;;;;;;5094659;28;20415;-76
2022/11/03 06:44:49;;;;;;;6.32;1.08;;;9.10;99.90;;;;;;5094619;28;20028;-74
2022/11/03 06:47:24;;;;;;;2.10;1.13;;;9.10;99.90;;;;;;5094646;28;20055;-74
2022/11/03 06:49:52;;;;;;;2.97;1.10;;;9.30;99.90;;;;;;5094786;28;20040;-73
2022/11/03 06:52:25;;;;;;;2.70;1.10;;;9.30;99.90;;;;;;5094796;28;20032;-74
2022/11/03 06:55:07;;;;;;;1.45;1.00;;;9.40;99.90;;;;;;5094719;28;20051;-79
2022/11/03 06:57:42;;;;;;;1.85;0.90;;;9.50;99.90;;;;;;5094616;28;20067;-78
2022/11/03 07:00:11;;;;;;;2.47;1.20;;;9.60;99.90;;;;;;5094567;28;20072;-74
2022/11/03 07:02:58;;;;;;;1.67;1.02;;;9.60;99.90;;;;;;5094480;28;20043;-74
2022/11/03 07:05:29;;;;;;;2.15;0.75;;;9.70;99.90;;;;;;5094458;28;20043;-74
2022/11/03 07:07:58;;;;;;;;;;;9.70;99.90;;;;;;5094745;28;20479;-74
2022/11/03 07:10:27;;;;;;;2.42;0.75;;;9.90;99.90;;;;;;5094479;28;19973;-80
2022/11/03 07:12:55;;;;;;;1.50;0.95;;;9.90;99.90;;;;;;5094451;28;20044;-78
2022/11/03 07:15:40;;;;;;;2.53;1.20;;;9.90;99.90;;;;;;5094435;28;20059;-75
2022/11/03 07:18:24;;;;;;;1.58;0.95;;;10.10;99.90;;;;;;5093396;28;20051;-74
2022/11/03 07:20:52;;;;;;;2.35;1.00;;;10.40;99.90;;;;;;5094235;28;20112;-74
2022/11/03 07:23:23;;;;;;;3.42;1.33;;;10.70;99.90;;;;;;5092862;28;20036;-79
2022/11/03 07:25:53;;;;;;;1.58;1.08;;;10.60;99.90;;;;;;5094110;28;20446;-74
2022/11/03 07:28:24;;;;;;;3.38;1.15;;;10.50;99.90;;;;;;5094212;28;20558;-74
2022/11/03 07:30:50;;;;;;;3.60;1.00;;;10.40;99.90;;;;;;5094315;28;20032;-84
2022/11/03 07:33:20;;;;;;;3.03;0.90;;;10.40;99.90;;;;;;5092698;28;20153;-74
2022/11/03 07:35:47;;;;;;;0.65;0.52;;;10.50;99.90;;;;;;5093149;28;20399;-82
2022/11/03 07:38:17;;;;;;;2.33;0.90;;;10.60;99.90;;;;;;5094027;28;20046;-73
2022/11/03 07:40:43;;;;;;;1.85;0.65;;;10.80;99.90;;;;;;5093941;28;20423;-80
2022/11/03 07:43:24;;;;;;;3.22;1.40;;;11.00;99.90;;;;;;5093872;28;20031;-73
2022/11/03 07:45:55;;;;;;;1.80;1.17;;;10.90;99.90;;;;;;5094058;28;20488;-73
2022/11/03 07:48:22;;;;;;;1.77;1.25;;;10.70;99.90;;;;;;5093944;28;20068;-73
2022/11/03 07:50:51;;;;;;;3.45;1.20;;;11.00;99.90;;;;;;5093858;28;20040;-74
2022/11/03 07:53:28;;;;;;;3.92;0.93;;;11.20;99.90;;;;;;5092372;28;20399;-82
2022/11/03 07:55:55;;;;;;;0.93;0.63;;;;;;;;;;5093684;28;20043;-73
2022/11/03 07:58:38;;;;;;;1.45;1.00;;;11.60;99.90;;;;;;5093861;28;20051;-77
2022/11/03 08:01:23;;;;;;;2.47;1.30;;;11.70;99.90;;;;;;5093950;28;20414;-75
2022/11/03 08:03:50;;;;;;;2.33;0.95;;;11.70;99.90;;;;;;5093915;28;20036;-74
2022/11/03 08:06:16;;;;;;;2.55;0.75;;;11.80;99.90;;;;;;5092546;28;20051;-82
2022/11/03 08:08:42;;;;;;;2.90;1.10;;;11.90;99.90;;;;;;5077975;28;20029;-83
2022/11/03 08:11:07;;;;;;;1.33;0.80;;;12.00;99.90;;;;;;5073284;28;20032;-83
2022/11/03 08:13:33;;;;;;;2.35;1.05;;;12.20;99.90;;;;;;5073460;28;20040;-83
2022/11/03 08:15:59;;;;;;;3.42;1.00;;;12.20;99.90;;;;;;5071933;28;20579;-74
2022/11/03 08:18:25;;;;;;;2.42;1.13;;;12.20;99.90;;;;;;5073435;28;20121;-84
2022/11/03 08:20:51;;;;;;;2.30;0.90;;;12.10;99.90;;;;;;5073491;28;20116;-74
2022/11/03 08:23:17;;;;;;;1.48;0.68;;;12.20;99.90;;;;;;5073293;28;20033;-80
2022/11/03 08:25:43;;;;;;;1.10;0.80;;;12.30;99.90;;;;;;5073174;28;20028;-84
2022/11/03 08:28:09;;;;;;;3.90;1.45;;;12.30;99.90;;;;;;5073190;28;20121;-83
2022/11/03 08:30:34;;;;;;;2.20;1.02;;;12.40;99.90;;;;;;5073102;28;20043;-83
2022/11/03 08:33:00;;;;;;;1.73;1.00;;;12.40;99.90;;;;;;5072187;28;20037;-74
2022/11/03 08:35:26;;;;;;;1.30;0.90;;;12.40;99.90;;;;;;5073128;28;20040;-76
2022/11/03 08:37:52;;;;;;;3.03;1.20;;;12.40;99.90;;;;;;5071890;28;20488;-82
2022/11/03 08:40:18;;;;;;;2.55;0.90;;;12.50;99.90;;;;;;5073123;28;20515;-74
2022/11/03 08:42:44;;;;;;;3.20;1.30;;;12.60;99.90;;;;;;5073311;28;20036;-82
2022/11/03 08:45:10;;;;;;;1.50;0.90;;;12.40;99.90;;;;;;5070262;28;20043;-74
2022/11/03 08:47:36;;;;;;;1.95;0.98;;;12.30;99.90;;;;;;5059222;28;20531;-76
2022/11/03 08:50:03;;;;;;;3.35;1.48;;;12.30;99.90;;;;;;5054829;28;20118;-75
2022/11/03 08:52:29;;;;;;;2.60;0.90;;;12.20;99.90;;;;;;5056038;28;20051;-75
2022/11/03 08:54:58;;;;;;;3.30;1.45;;;12.20;99.90;;;;;;5055729;28;20380;-75
2022/11/03 08:57:24;;;;;;;4.07;1.50;;;12.20;99.90;;;;;;5056637;28;20036;-77
2022/11/03 08:59:51;;;;;;;3.67;1.50;;;12.20;99.90;;;;;;5055783;28;20055;-76
2022/11/03 09:02:17;;;;;;;5.90;1.60;;;12.10;99.90;;;;;;5054523;28;20039;-76
2022/11/03 09:04:43;;;;;;;3.60;2.05;;;12.10;99.90;;;;;;5054276;28;20036;-79
2022/11/03 09:07:09;;;;;;;2.47;1.55;;;12.00;99.90;;;;;;5053822;28;20041;-75
2022/11/03 09:09:35;;;;;;;4.90;1.83;;;11.90;99.90;;;;;;5054421;28;20471;-76
2022/11/03 09:12:00;;;;;;;3.63;1.70;;;11.80;99.90;;;;;;5055632;28;20039;-75
2022/11/03 09:14:26;;;;;;;2.90;1.65;;;11.80;99.90;;;;;;5052732;28;20116;-76
2022/11/03 09:16:52;;;;;;;2.58;1.10;;;11.90;99.90;;;;;;5054482;28;20037;-78
2022/11/03 09:19:17;;;;;;;3.80;1.30;;;11.90;99.90;;;;;;5055980;28;20044;-75
2022/11/03 09:21:43;;;;;;;3.65;1.10;;;11.90;99.90;;;;;;5055056;28;20037;-78
2022/11/03 09:24:09;;;;;;;4.63;1.35;;;11.90;99.90;;;;;;5054319;28;20078;-75
2022/11/03 09:26:37;;;;;;;2.67;1.60;;;12.00;99.90;;;;;;5052160;28;20090;-75
2022/11/03 09:29:03;;;;;;;4.32;1.20;;;12.00;99.90;;;;;;5052803;28;20404;-80
2022/11/03 09:31:28;;;;;;;3.97;1.83;;;12.00;99.90;;;;;;5053624;28;20036;-75
2022/11/03 09:33:55;;;;;;;9.13;4.40;;;12.10;99.90;;;;;;5055788;28;20041;-76
2022/11/03 09:36:20;;;;;;;5.28;2.75;;;12.20;99.90;;;;;;5055766;28;20037;-76
2022/11/03 09:38:46;;;;;;;2.88;1.40;;;12.20;99.90;;;;;;5054582;28;20416;-77
2022/11/03 09:41:21;;;;;;;1.98;1.10;;;12.30;99.90;;;;;;5054273;28;20075;-76
2022/11/03 09:43:48;;;;;;;2.55;1.58;;;12.30;99.90;;;;;;5053161;28;20471;-76
2022/11/03 09:46:15;;;;;;;3.00;1.55;;;12.30;99.90;;;;;;5053926;28;20505;-83
2022/11/03 09:48:41;;;;;;;3.17;1.30;;;12.40;99.90;;;;;;5053657;28;20562;-78
2022/11/03 09:51:18;;;;;;;3.13;1.50;;;12.50;99.90;;;;;;5052350;28;20131;-76
2022/11/03 09:53:44;;;;;;;2.25;1.50;;;12.50;99.90;;;;;;5053221;28;20044;-77
2022/11/03 09:56:10;;;;;;;2.40;1.33;;;12.60;99.90;;;;;;5053243;28;20041;-77
2022/11/03 09:58:36;;;;;;;2.60;1.10;;;12.60;99.90;;;;;;5051717;28;20080;-76
2022/11/03 10:01:02;;;;;;;1.85;1.27;;;12.70;99.90;;;;;;5055881;28;20033;-76
2022/11/03 10:03:29;;;;;;;4.70;1.58;;;12.70;99.90;;;;;;5053657;28;20381;-76
2022/11/03 10:05:55;;;;;;;2.28;1.17;;;12.80;99.90;;;;;;5052085;28;20040;-77
2022/11/03 10:08:27;;;;;;;4.10;1.60;;;12.80;99.90;;;;;;5053491;28;20048;-76
2022/11/03 10:10:54;;;;;;;3.15;1.73;;;12.90;99.90;;;;;;5053576;28;20618;-76
2022/11/03 10:13:35;;;;;;;2.70;1.75;;;12.80;99.90;;;;;;5063040;28;20037;-75
2022/11/03 10:16:04;;;;;;;3.28;2.03;;;12.80;99.90;;;;;;5073298;28;20128;-76
2022/11/03 10:18:30;;;;;;;4.78;2.10;;;12.80;99.90;;;;;;5075441;28;20041;-74
2022/11/03 10:21:01;;;;;;;3.25;1.73;;;12.90;99.90;;;;;;5073520;28;20048;-73
2022/11/03 10:23:27;;;;;;;3.90;2.20;;;12.90;99.90;;;;;;5072249;28;20032;-76
2022/11/03 10:26:11;;;;;;;4.10;1.65;;;12.90;99.90;;;;;;5073416;28;20131;-73
2022/11/03 10:28:37;;;;;;;4.45;2.20;;;13.00;99.90;;;;;;5073166;28;20044;-73
2022/11/03 10:31:08;;;;;;;6.75;2.90;;;;;;;;;;5072849;28;20381;-73
2022/11/03 10:33:39;;;;;;;6.70;2.60;;;13.10;99.90;;;;;;5072885;28;20373;-73
2022/11/03 10:36:14;;;;;;;3.72;2.35;;;13.10;99.90;;;;;;5073082;28;20040;-72
2022/11/03 10:38:42;;;;;;;5.95;2.33;;;13.10;99.90;;;;;;5073450;28;20105;-73
2022/11/03 10:41:16;;;;;;;8.55;1.80;;;13.10;99.90;;;;;;5072642;28;20037;-73
2022/11/03 10:43:44;;;;;;;4.68;1.70;;;13.10;99.90;;;;;;5072125;28;20043;-72
2022/11/03 10:46:13;;;;;;;7.00;2.33;;;13.20;99.90;;;;;;5074190;28;20040;-73
2022/11/03 10:48:38;;;;;;;7.90;4.88;;;13.20;99.90;;;;;;5072365;28;20085;-73
2022/11/03 10:51:05;;;;;;;10.98;4.97;;;13.20;99.90;;;;;;5073153;28;20045;-73
2022/11/03 10:53:31;;;;;;;5.07;2.92;;;13.20;99.90;;;;;;5073471;28;20043;-72
2022/11/03 10:55:59;;;;;;;5.65;2.20;;;13.10;99.90;;;;;;5072170;28;20040;-72
2022/11/03 10:58:25;;;;;;;5.80;2.58;;;13.20;99.90;;;;;;5070506;28;20044;-71
2022/11/03 11:00:51;;;;;;;3.00;1.88;;;13.20;99.90;;;;;;5072391;28;20040;-72
2022/11/03 11:03:17;;;;;;;5.65;2.33;;;13.20;99.90;;;;;;5072486;28;20060;-71
2022/11/03 11:05:46;;;;;;;6.45;2.83;;;13.20;99.90;;;;;;5072188;28;20504;-71
2022/11/03 11:08:15;;;;;;;6.35;3.22;;;13.20;99.90;;;;;;5071919;28;20040;-72
2022/11/03 11:10:44;;;;;;;6.68;2.90;;;13.10;99.90;;;;;;5072220;28;20020;-72
2022/11/03 11:13:22;;;;;;;6.13;2.25;;;13.20;99.90;;;;;;5071395;28;20538;-71
2022/11/03 11:15:53;;;;;;;5.82;2.67;;;13.20;99.90;;;;;;5071891;28;20145;-72
2022/11/03 11:18:28;;;;;;;5.25;2.45;;;13.20;99.90;;;;;;5071273;28;20044;-73
2022/11/03 11:21:01;;;;;;;4.82;1.73;;;13.30;99.90;;;;;;5071782;28;20075;-72
2022/11/03 11:23:27;;;;;;;2.55;1.67;;;13.50;99.90;;;;;;5072642;28;20094;-73
2022/11/03 11:26:08;;;;;;;7.22;2.00;;;13.50;99.90;;;;;;5071716;28;20491;-73
2022/11/03 11:28:37;;;;;;;4.10;2.15;;;13.50;99.90;;;;;;5072391;28;20036;-73
2022/11/03 11:31:21;;;;;;;3.92;2.20;;;13.30;99.90;;;;;;5072783;28;20109;-73
2022/11/03 11:33:48;;;;;;;4.25;2.30;;;13.20;99.90;;;;;;5073870;28;20036;-74
2022/11/03 11:36:24;;;;;;;5.38;2.28;;;13.20;99.90;;;;;;5073410;28;20420;-72
2022/11/03 11:38:54;;;;;;;7.15;1.80;;;13.20;99.90;;;;;;5071444;28;20052;-73
2022/11/03 11:41:58;;;;;;;7.57;3.70;;;13.20;99.90;;;;;;5072615;28;20090;-73
2022/11/03 11:44:45;;;;;;;7.13;3.85;;;13.40;99.90;;;;;;5056824;28;20062;-72
2022/11/03 11:47:31;;;;;;;7.00;3.53;;;13.40;99.90;;;;;;5071815;28;20617;-72
2022/11/03 11:50:08;;;;;;;8.73;3.05;;;13.50;99.90;;;;;;5072947;28;20111;-72
2022/11/03 11:52:48;;;;;;;4.97;1.85;;;13.60;99.90;;;;;;5071972;28;20400;-72
2022/11/03 11:55:18;;;;;;;3.08;1.63;;;;;;;;;;5071823;28;20036;-72
2022/11/03 11:57:44;;;;;;;2.38;1.55;;;13.50;99.90;;;;;;5071114;28;20044;-72
2022/11/03 12:00:21;;;;;;;2.35;1.10;;;13.60;99.90;;;;;;5071680;28;20139;-72
2022/11/03 12:02:47;;;;;;;2.72;1.20;;;13.60;99.90;;;;;;5071269;28;20503;-72
2022/11/03 12:05:31;;;;;;;7.22;1.63;;;13.60;99.90;;;;;;5071507;28;20519;-72
2022/11/03 12:07:56;;;;;;;3.53;1.60;;;13.60;99.90;;;;;;5071796;28;20040;-72
2022/11/03 12:10:25;;;;;;;2.38;1.33;;;13.60;99.90;;;;;;5073288;28;20044;-72
2022/11/03 12:12:51;;;;;;;2.53;1.35;;;13.60;99.90;;;;;;5071284;28;20036;-72
2022/11/03 12:15:55;;;;;;;2.65;1.67;;;13.70;99.90;;;;;;5070999;28;20573;-72
2022/11/03 12:18:41;;;;;;;5.18;2.22;;;13.70;99.90;;;;;;5051841;28;20044;-72
2022/11/03 12:21:15;;;;;;;4.68;2.47;;;13.70;99.90;;;;;;5072618;28;20057;-72
2022/11/03 12:23:43;;;;;;;5.55;3.10;;;13.70;99.90;;;;;;5074001;28;20120;-72
2022/11/03 12:26:35;;;;;;;4.25;2.40;;;13.70;99.90;;;;;;5073779;28;20052;-72
2022/11/03 12:29:01;;;;;;;3.80;2.45;;;13.60;99.90;;;;;;5074329;28;20388;-72
2022/11/03 12:31:26;;;;;;;6.40;2.20;;;13.60;99.90;;;;;;5075108;28;20037;-71
2022/11/03 12:33:52;;;;;;;7.72;2.55;;;13.60;99.90;;;;;;5074188;28;20521;-73
2022/11/03 12:36:18;;;;;;;6.82;2.97;;;13.60;99.90;;;;;;5074891;28;20075;-72
2022/11/03 12:38:44;;;;;;;6.97;2.67;;;13.60;99.90;;;;;;5074414;28;20143;-72
2022/11/03 12:41:23;;;;;;;4.90;2.67;;;13.50;99.90;;;;;;5074650;28;20115;-72
2022/11/03 12:43:51;;;;;;;6.25;2.55;;;13.50;99.90;;;;;;5070316;28;20076;-71
2022/11/03 12:46:18;;;;;;;4.13;2.33;;;13.60;99.90;;;;;;5073780;28;20514;-71
2022/11/03 12:48:46;;;;;;;4.05;2.30;;;13.60;99.90;;;;;;5073018;28;20048;-72
2022/11/03 12:51:17;;;;;;;8.00;2.25;;;13.70;99.90;;;;;;5073276;28;20040;-71
2022/11/03 12:53:44;;;;;;;5.78;2.40;;;13.70;99.90;;;;;;5073729;28;20047;-71
2022/11/03 12:56:10;;;;;;;4.03;1.95;;;13.80;99.90;;;;;;5073467;28;20115;-71
2022/11/03 12:58:36;;;;;;;7.10;1.75;;;13.80;99.90;;;;;;5070690;28;20082;-71
2022/11/03 13:01:03;;;;;;;4.05;2.30;;;13.80;99.90;;;;;;5073990;28;20036;-71
2022/11/03 13:03:30;;;;;;;3.80;2.42;;;13.80;99.90;;;;;;5073669;28;20067;-71
2022/11/03 13:05:56;;;;;;;4.88;2.03;;;13.70;99.90;;;;;;5073391;28;20036;-71
2022/11/03 13:08:22;;;;;;;3.53;1.50;;;13.70;99.90;;;;;;5068613;28;20050;-70
2022/11/03 13:10:47;;;;;;;4.35;1.58;;;13.70;99.90;;;;;;5067723;28;20037;-70
2022/11/03 13:13:13;;;;;;;4.75;1.80;;;13.70;99.90;;;;;;5073194;28;20051;-71
2022/11/03 13:15:39;;;;;;;3.70;1.55;;;13.70;99.90;;;;;;5073672;28;20033;-71
2022/11/03 13:18:05;;;;;;;2.30;1.30;;;13.70;99.90;;;;;;5073073;28;20124;-71
2022/11/03 13:20:37;;;;;;;2.85;1.48;;;13.70;99.90;;;;;;5074054;28;20087;-71
2022/11/03 13:23:04;;;;;;;5.78;1.90;;;13.70;99.90;;;;;;5073375;28;20045;-71
2022/11/03 13:25:30;;;;;;;3.67;1.55;;;13.70;99.90;;;;;;5073719;28;20044;-71
2022/11/03 13:27:56;;;;;;;3.22;1.55;;;13.80;99.90;;;;;;5072671;28;20039;-71
2022/11/03 13:30:23;;;;;;;2.92;1.60;;;13.70;99.90;;;;;;5073916;28;20048;-71